sensor_id;sensor_type;location;lat;lon;timestamp;P1;durP1;ratioP1;P2;durP2;ratioP2
56680;SDS011;42558;52.388;13.390;2022-11-15T00:01:52;61.75;;;32.68;;
56680;SDS011;42558;52.388;13.390;2022-11-15T00:04:22;60.42;;;32.68;;
56680;SDS011;42558;52.388;13.390;2022-11-15T00:06:52;63.27;;;34.01;;
56680;SDS011;42558;52.388;13.390;2022-11-15T00:09:22;63.46;;;35.34;;
56680;SDS011;42558;52.388;13.390;2022-11-15T00:11:51;60.99;;;32.49;;
56680;SDS011;42558;52.388;13.390;2022-11-15T00:14:18;60.80;;;33.06;;
56680;SDS011;42558;52.388;13.390;2022-11-15T00:16:47;63.65;;;32.11;;
56680;SDS011;42558;52.388;13.390;2022-11-15T00:19:15;64.03;;;33.44;;
56680;SDS011;42558;52.388;13.390;2022-11-15T00:21:44;68.21;;;34.39;;
56680;SDS011;42558;52.388;13.390;2022-11-15T00:24:12;71.63;;;37.43;;
56680;SDS011;42558;52.388;13.390;2022-11-15T00:26:40;65.36;;;33.44;;
56680;SDS011;42558;52.388;13.390;2022-11-15T00:29:09;61.56;;;32.68;;
56680;SDS011;42558;52.388;13.390;2022-11-15T00:31:37;56.81;;;31.35;;
56680;SDS011;42558;52.388;13.390;2022-11-15T00:34:06;63.84;;;33.06;;
56680;SDS011;42558;52.388;13.390;2022-11-15T00:36:34;59.66;;;31.35;;
56680;SDS011;42558;52.388;13.390;2022-11-15T00:39:04;61.75;;;33.06;;
56680;SDS011;42558;52.388;13.390;2022-11-15T00:41:34;59.09;;;32.11;;
56680;SDS011;42558;52.388;13.390;2022-11-15T00:44:03;66.31;;;36.29;;
56680;SDS011;42558;52.388;13.390;2022-11-15T00:46:31;66.88;;;35.15;;
56680;SDS011;42558;52.388;13.390;2022-11-15T00:48:59;63.27;;;33.44;;
56680;SDS011;42558;52.388;13.390;2022-11-15T00:51:28;54.72;;;30.40;;
56680;SDS011;42558;52.388;13.390;2022-11-15T00:53:56;61.37;;;33.25;;
56680;SDS011;42558;52.388;13.390;2022-11-15T00:56:25;55.29;;;30.40;;
56680;SDS011;42558;52.388;13.390;2022-11-15T00:58:53;65.36;;;34.01;;
56680;SDS011;42558;52.388;13.390;2022-11-15T01:01:21;60.61;;;32.30;;
56680;SDS011;42558;52.388;13.390;2022-11-15T01:03:50;59.47;;;31.16;;
56680;SDS011;42558;52.388;13.390;2022-11-15T01:06:18;57.95;;;31.73;;
56680;SDS011;42558;52.388;13.390;2022-11-15T01:08:47;58.71;;;31.54;;
56680;SDS011;42558;52.388;13.390;2022-11-15T01:11:15;63.08;;;33.25;;
56680;SDS011;42558;52.388;13.390;2022-11-15T01:13:43;60.42;;;32.11;;
56680;SDS011;42558;52.388;13.390;2022-11-15T01:16:15;60.61;;;31.16;;
56680;SDS011;42558;52.388;13.390;2022-11-15T01:18:47;55.48;;;31.73;;
56680;SDS011;42558;52.388;13.390;2022-11-15T01:21:18;60.04;;;31.73;;
56680;SDS011;42558;52.388;13.390;2022-11-15T01:23:52;61.18;;;31.92;;
56680;SDS011;42558;52.388;13.390;2022-11-15T01:26:24;57.57;;;31.54;;
56680;SDS011;42558;52.388;13.390;2022-11-15T01:28:55;61.56;;;31.92;;
56680;SDS011;42558;52.388;13.390;2022-11-15T01:31:25;59.09;;;31.54;;
56680;SDS011;42558;52.388;13.390;2022-11-15T01:33:55;62.13;;;31.92;;
56680;SDS011;42558;52.388;13.390;2022-11-15T01:36:25;60.99;;;32.68;;
56680;SDS011;42558;52.388;13.390;2022-11-15T01:38:59;58.33;;;30.02;;
56680;SDS011;42558;52.388;13.390;2022-11-15T01:41:32;68.02;;;34.77;;
56680;SDS011;42558;52.388;13.390;2022-11-15T01:44:55;59.66;;;30.40;;
56680;SDS011;42558;52.388;13.390;2022-11-15T01:47:31;62.13;;;30.40;;
56680;SDS011;42558;52.388;13.390;2022-11-15T01:50:14;57.76;;;31.16;;
56680;SDS011;42558;52.388;13.390;2022-11-15T01:52:48;55.86;;;30.97;;
56680;SDS011;42558;52.388;13.390;2022-11-15T01:55:21;58.33;;;31.16;;
56680;SDS011;42558;52.388;13.390;2022-11-15T01:57:58;60.99;;;29.64;;
56680;SDS011;42558;52.388;13.390;2022-11-15T02:00:30;58.71;;;31.16;;
56680;SDS011;42558;52.388;13.390;2022-11-15T02:03:02;60.42;;;32.68;;
56680;SDS011;42558;52.388;13.390;2022-11-15T02:05:32;60.80;;;31.16;;
56680;SDS011;42558;52.388;13.390;2022-11-15T02:08:04;69.35;;;34.01;;
56680;SDS011;42558;52.388;13.390;2022-11-15T02:10:35;65.74;;;34.20;;
56680;SDS011;42558;52.388;13.390;2022-11-15T02:13:03;65.36;;;34.20;;
56680;SDS011;42558;52.388;13.390;2022-11-15T02:15:40;60.80;;;33.44;;
56680;SDS011;42558;52.388;13.390;2022-11-15T02:18:37;63.08;;;31.92;;
56680;SDS011;42558;52.388;13.390;2022-11-15T02:24:27;51.49;;;29.07;;
56680;SDS011;42558;52.388;13.390;2022-11-15T02:40:14;52.82;;;27.55;;
56680;SDS011;42558;52.388;13.390;2022-11-15T02:42:49;58.33;;;29.83;;
56680;SDS011;42558;52.388;13.390;2022-11-15T02:45:46;51.11;;;27.74;;
56680;SDS011;42558;52.388;13.390;2022-11-15T02:48:24;53.58;;;29.45;;
56680;SDS011;42558;52.388;13.390;2022-11-15T02:50:56;56.05;;;30.78;;
56680;SDS011;42558;52.388;13.390;2022-11-15T02:53:27;57.57;;;29.45;;
56680;SDS011;42558;52.388;13.390;2022-11-15T02:55:57;59.09;;;31.35;;
56680;SDS011;42558;52.388;13.390;2022-11-15T03:04:43;59.66;;;30.78;;
56680;SDS011;42558;52.388;13.390;2022-11-15T03:10:14;55.29;;;28.50;;
56680;SDS011;42558;52.388;13.390;2022-11-15T03:12:56;57.19;;;31.92;;
56680;SDS011;42558;52.388;13.390;2022-11-15T03:15:40;60.23;;;30.78;;
56680;SDS011;42558;52.388;13.390;2022-11-15T03:18:21;58.90;;;30.21;;
56680;SDS011;42558;52.388;13.390;2022-11-15T03:20:59;65.93;;;34.01;;
56680;SDS011;42558;52.388;13.390;2022-11-15T03:23:35;68.40;;;33.44;;
56680;SDS011;42558;52.388;13.390;2022-11-15T03:26:09;60.99;;;31.54;;
56680;SDS011;42558;52.388;13.390;2022-11-15T03:28:51;60.23;;;29.83;;
56680;SDS011;42558;52.388;13.390;2022-11-15T03:31:28;66.31;;;33.06;;
56680;SDS011;42558;52.388;13.390;2022-11-15T03:37:02;54.34;;;28.88;;
56680;SDS011;42558;52.388;13.390;2022-11-15T03:39:34;58.71;;;30.97;;
56680;SDS011;42558;52.388;13.390;2022-11-15T03:47:51;51.68;;;27.93;;
56680;SDS011;42558;52.388;13.390;2022-11-15T03:50:24;64.60;;;31.73;;
56680;SDS011;42558;52.388;13.390;2022-11-15T03:52:55;69.16;;;36.48;;
56680;SDS011;42558;52.388;13.390;2022-11-15T03:55:23;64.22;;;33.25;;
56680;SDS011;42558;52.388;13.390;2022-11-15T03:57:55;62.89;;;32.30;;
56680;SDS011;42558;52.388;13.390;2022-11-15T04:00:28;60.99;;;30.21;;
56680;SDS011;42558;52.388;13.390;2022-11-15T04:02:58;56.43;;;31.92;;
56680;SDS011;42558;52.388;13.390;2022-11-15T04:05:28;61.75;;;31.16;;
56680;SDS011;42558;52.388;13.390;2022-11-15T04:07:58;61.18;;;30.40;;
56680;SDS011;42558;52.388;13.390;2022-11-15T04:10:28;60.99;;;33.25;;
56680;SDS011;42558;52.388;13.390;2022-11-15T04:12:58;60.42;;;29.26;;
56680;SDS011;42558;52.388;13.390;2022-11-15T04:15:30;55.29;;;29.45;;
56680;SDS011;42558;52.388;13.390;2022-11-15T04:18:01;56.24;;;28.88;;
56680;SDS011;42558;52.388;13.390;2022-11-15T04:20:31;58.33;;;30.59;;
56680;SDS011;42558;52.388;13.390;2022-11-15T04:23:20;53.77;;;28.50;;
56680;SDS011;42558;52.388;13.390;2022-11-15T04:26:12;51.30;;;27.74;;
56680;SDS011;42558;52.388;13.390;2022-11-15T04:28:45;57.19;;;30.21;;
56680;SDS011;42558;52.388;13.390;2022-11-15T04:31:34;58.71;;;29.07;;
56680;SDS011;42558;52.388;13.390;2022-11-15T04:34:04;60.04;;;30.59;;
56680;SDS011;42558;52.388;13.390;2022-11-15T04:36:33;61.94;;;32.11;;
56680;SDS011;42558;52.388;13.390;2022-11-15T04:39:22;58.90;;;30.78;;
56680;SDS011;42558;52.388;13.390;2022-11-15T04:41:52;58.52;;;30.40;;
56680;SDS011;42558;52.388;13.390;2022-11-15T04:44:22;60.04;;;31.35;;
56680;SDS011;42558;52.388;13.390;2022-11-15T04:46:52;61.18;;;30.02;;
56680;SDS011;42558;52.388;13.390;2022-11-15T04:49:22;59.09;;;29.26;;
56680;SDS011;42558;52.388;13.390;2022-11-15T04:51:52;56.62;;;28.12;;
56680;SDS011;42558;52.388;13.390;2022-11-15T04:54:22;60.23;;;30.02;;
56680;SDS011;42558;52.388;13.390;2022-11-15T04:56:53;62.13;;;32.11;;
56680;SDS011;42558;52.388;13.390;2022-11-15T04:59:24;55.86;;;29.26;;
56680;SDS011;42558;52.388;13.390;2022-11-15T05:01:54;59.28;;;31.35;;
56680;SDS011;42558;52.388;13.390;2022-11-15T05:04:24;65.93;;;34.20;;
56680;SDS011;42558;52.388;13.390;2022-11-15T05:06:54;59.09;;;30.59;;
56680;SDS011;42558;52.388;13.390;2022-11-15T05:09:24;64.98;;;32.68;;
56680;SDS011;42558;52.388;13.390;2022-11-15T05:11:54;66.88;;;36.29;;
56680;SDS011;42558;52.388;13.390;2022-11-15T05:14:24;63.65;;;33.63;;
56680;SDS011;42558;52.388;13.390;2022-11-15T05:16:54;64.60;;;32.11;;
56680;SDS011;42558;52.388;13.390;2022-11-15T05:19:24;60.80;;;30.59;;
56680;SDS011;42558;52.388;13.390;2022-11-15T05:21:54;64.98;;;32.49;;
56680;SDS011;42558;52.388;13.390;2022-11-15T05:24:22;62.51;;;31.54;;
56680;SDS011;42558;52.388;13.390;2022-11-15T05:26:50;64.98;;;33.63;;
56680;SDS011;42558;52.388;13.390;2022-11-15T05:29:19;69.54;;;31.35;;
56680;SDS011;42558;52.388;13.390;2022-11-15T05:31:47;62.89;;;31.73;;
56680;SDS011;42558;52.388;13.390;2022-11-15T05:34:16;62.51;;;31.92;;
56680;SDS011;42558;52.388;13.390;2022-11-15T05:36:44;63.65;;;32.87;;
56680;SDS011;42558;52.388;13.390;2022-11-15T05:39:13;62.89;;;32.11;;
56680;SDS011;42558;52.388;13.390;2022-11-15T05:41:44;60.99;;;30.40;;
56680;SDS011;42558;52.388;13.390;2022-11-15T05:44:19;52.44;;;27.36;;
56680;SDS011;42558;52.388;13.390;2022-11-15T05:46:53;66.12;;;34.39;;
56680;SDS011;42558;52.388;13.390;2022-11-15T05:49:30;64.60;;;31.16;;
56680;SDS011;42558;52.388;13.390;2022-11-15T05:52:06;60.80;;;31.16;;
56680;SDS011;42558;52.388;13.390;2022-11-15T05:54:40;58.33;;;29.07;;
56680;SDS011;42558;52.388;13.390;2022-11-15T05:57:11;58.33;;;28.88;;
56680;SDS011;42558;52.388;13.390;2022-11-15T05:59:42;58.52;;;30.40;;
56680;SDS011;42558;52.388;13.390;2022-11-15T06:02:13;60.99;;;31.16;;
56680;SDS011;42558;52.388;13.390;2022-11-15T06:04:45;59.47;;;29.45;;
56680;SDS011;42558;52.388;13.390;2022-11-15T06:07:15;56.24;;;27.74;;
56680;SDS011;42558;52.388;13.390;2022-11-15T06:09:45;60.80;;;28.69;;
56680;SDS011;42558;52.388;13.390;2022-11-15T06:12:13;57.38;;;30.40;;
56680;SDS011;42558;52.388;13.390;2022-11-15T06:14:42;54.91;;;29.64;;
56680;SDS011;42558;52.388;13.390;2022-11-15T06:17:10;61.18;;;30.78;;
56680;SDS011;42558;52.388;13.390;2022-11-15T06:19:39;56.05;;;28.88;;
56680;SDS011;42558;52.388;13.390;2022-11-15T06:22:08;66.88;;;34.58;;
56680;SDS011;42558;52.388;13.390;2022-11-15T06:24:35;59.66;;;28.69;;
56680;SDS011;42558;52.388;13.390;2022-11-15T06:27:04;63.65;;;31.54;;
56680;SDS011;42558;52.388;13.390;2022-11-15T06:29:34;64.98;;;33.63;;
56680;SDS011;42558;52.388;13.390;2022-11-15T06:32:03;58.52;;;30.78;;
56680;SDS011;42558;52.388;13.390;2022-11-15T06:34:31;64.22;;;32.11;;
56680;SDS011;42558;52.388;13.390;2022-11-15T06:36:59;64.03;;;35.91;;
56680;SDS011;42558;52.388;13.390;2022-11-15T06:39:29;58.52;;;32.30;;
56680;SDS011;42558;52.388;13.390;2022-11-15T06:41:59;57.00;;;30.97;;
56680;SDS011;42558;52.388;13.390;2022-11-15T06:44:26;61.37;;;29.83;;
56680;SDS011;42558;52.388;13.390;2022-11-15T06:46:55;61.18;;;32.49;;
56680;SDS011;42558;52.388;13.390;2022-11-15T06:49:23;61.18;;;31.73;;
56680;SDS011;42558;52.388;13.390;2022-11-15T06:51:52;59.66;;;30.40;;
56680;SDS011;42558;52.388;13.390;2022-11-15T06:54:20;61.75;;;30.21;;
56680;SDS011;42558;52.388;13.390;2022-11-15T06:56:48;69.35;;;33.82;;
56680;SDS011;42558;52.388;13.390;2022-11-15T06:59:17;59.47;;;31.16;;
56680;SDS011;42558;52.388;13.390;2022-11-15T07:01:45;61.75;;;33.82;;
56680;SDS011;42558;52.388;13.390;2022-11-15T07:04:14;68.02;;;34.77;;
56680;SDS011;42558;52.388;13.390;2022-11-15T07:06:42;68.40;;;34.01;;
56680;SDS011;42558;52.388;13.390;2022-11-15T07:09:11;62.89;;;33.25;;
56680;SDS011;42558;52.388;13.390;2022-11-15T07:11:39;70.68;;;34.20;;
56680;SDS011;42558;52.388;13.390;2022-11-15T07:14:08;64.79;;;34.01;;
56680;SDS011;42558;52.388;13.390;2022-11-15T07:16:37;58.71;;;30.40;;
56680;SDS011;42558;52.388;13.390;2022-11-15T07:19:04;71.06;;;36.67;;
56680;SDS011;42558;52.388;13.390;2022-11-15T07:21:33;65.55;;;32.87;;
56680;SDS011;42558;52.388;13.390;2022-11-15T07:24:01;66.12;;;35.91;;
56680;SDS011;42558;52.388;13.390;2022-11-15T07:26:30;79.42;;;36.67;;
56680;SDS011;42558;52.388;13.390;2022-11-15T07:28:58;66.69;;;35.15;;
56680;SDS011;42558;52.388;13.390;2022-11-15T07:31:26;78.09;;;38.19;;
56680;SDS011;42558;52.388;13.390;2022-11-15T07:33:55;79.61;;;39.71;;
56680;SDS011;42558;52.388;13.390;2022-11-15T07:36:26;79.04;;;39.52;;
56680;SDS011;42558;52.388;13.390;2022-11-15T07:38:55;75.62;;;36.67;;
56680;SDS011;42558;52.388;13.390;2022-11-15T07:41:23;80.18;;;39.90;;
56680;SDS011;42558;52.388;13.390;2022-11-15T07:43:52;68.97;;;34.96;;
56680;SDS011;42558;52.388;13.390;2022-11-15T07:46:22;73.15;;;36.10;;
56680;SDS011;42558;52.388;13.390;2022-11-15T07:48:52;63.84;;;34.01;;
56680;SDS011;42558;52.388;13.390;2022-11-15T07:51:22;74.29;;;36.67;;
56680;SDS011;42558;52.388;13.390;2022-11-15T07:53:49;72.20;;;36.29;;
56680;SDS011;42558;52.388;13.390;2022-11-15T07:56:16;81.70;;;40.47;;
56680;SDS011;42558;52.388;13.390;2022-11-15T07:58:46;78.09;;;37.43;;
56680;SDS011;42558;52.388;13.390;2022-11-15T08:01:16;70.49;;;33.63;;
56680;SDS011;42558;52.388;13.390;2022-11-15T08:03:46;78.28;;;39.33;;
56680;SDS011;42558;52.388;13.390;2022-11-15T08:06:16;71.82;;;38.76;;
56680;SDS011;42558;52.388;13.390;2022-11-15T08:08:47;82.46;;;42.37;;
56680;SDS011;42558;52.388;13.390;2022-11-15T08:11:17;78.66;;;41.04;;
56680;SDS011;42558;52.388;13.390;2022-11-15T08:13:47;80.94;;;41.61;;
56680;SDS011;42558;52.388;13.390;2022-11-15T08:16:17;74.86;;;39.33;;
56680;SDS011;42558;52.388;13.390;2022-11-15T08:18:45;75.05;;;39.90;;
56680;SDS011;42558;52.388;13.390;2022-11-15T08:21:18;78.85;;;42.94;;
56680;SDS011;42558;52.388;13.390;2022-11-15T08:23:49;71.82;;;38.19;;
56680;SDS011;42558;52.388;13.390;2022-11-15T08:26:19;74.67;;;36.67;;
56680;SDS011;42558;52.388;13.390;2022-11-15T08:28:49;73.34;;;38.19;;
56680;SDS011;42558;52.388;13.390;2022-11-15T08:31:19;75.24;;;37.43;;
56680;SDS011;42558;52.388;13.390;2022-11-15T08:33:48;68.97;;;38.57;;
56680;SDS011;42558;52.388;13.390;2022-11-15T08:36:18;74.86;;;41.04;;
56680;SDS011;42558;52.388;13.390;2022-11-15T08:38:48;79.04;;;40.66;;
56680;SDS011;42558;52.388;13.390;2022-11-15T08:41:30;64.60;;;32.87;;
56680;SDS011;42558;52.388;13.390;2022-11-15T08:44:00;76.57;;;38.38;;
56680;SDS011;42558;52.388;13.390;2022-11-15T08:46:27;73.72;;;40.85;;
56680;SDS011;42558;52.388;13.390;2022-11-15T08:48:57;74.48;;;38.00;;
56680;SDS011;42558;52.388;13.390;2022-11-15T08:51:27;65.74;;;36.86;;
56680;SDS011;42558;52.388;13.390;2022-11-15T08:53:57;63.27;;;34.58;;
56680;SDS011;42558;52.388;13.390;2022-11-15T08:56:27;52.44;;;29.07;;
56680;SDS011;42558;52.388;13.390;2022-11-15T08:58:57;70.11;;;37.43;;
56680;SDS011;42558;52.388;13.390;2022-11-15T09:01:27;64.03;;;34.96;;
56680;SDS011;42558;52.388;13.390;2022-11-15T09:03:56;62.13;;;33.44;;
56680;SDS011;42558;52.388;13.390;2022-11-15T09:06:26;71.44;;;36.86;;
56680;SDS011;42558;52.388;13.390;2022-11-15T09:08:56;58.33;;;31.54;;
56680;SDS011;42558;52.388;13.390;2022-11-15T09:11:26;71.63;;;37.62;;
56680;SDS011;42558;52.388;13.390;2022-11-15T09:13:56;64.41;;;34.20;;
56680;SDS011;42558;52.388;13.390;2022-11-15T09:16:26;55.10;;;32.30;;
56680;SDS011;42558;52.388;13.390;2022-11-15T09:18:56;63.65;;;35.53;;
56680;SDS011;42558;52.388;13.390;2022-11-15T09:21:26;66.12;;;36.10;;
56680;SDS011;42558;52.388;13.390;2022-11-15T09:23:56;60.42;;;33.63;;
56680;SDS011;42558;52.388;13.390;2022-11-15T09:26:26;61.18;;;35.91;;
56680;SDS011;42558;52.388;13.390;2022-11-15T09:28:56;60.23;;;34.58;;
56680;SDS011;42558;52.388;13.390;2022-11-15T09:31:26;62.32;;;34.58;;
56680;SDS011;42558;52.388;13.390;2022-11-15T09:33:56;65.55;;;35.53;;
56680;SDS011;42558;52.388;13.390;2022-11-15T09:36:26;57.57;;;33.06;;
56680;SDS011;42558;52.388;13.390;2022-11-15T09:38:58;61.94;;;34.96;;
56680;SDS011;42558;52.388;13.390;2022-11-15T09:42:02;63.08;;;33.82;;
56680;SDS011;42558;52.388;13.390;2022-11-15T09:45:12;56.24;;;31.16;;
56680;SDS011;42558;52.388;13.390;2022-11-15T09:48:13;59.28;;;33.06;;
56680;SDS011;42558;52.388;13.390;2022-11-15T09:50:52;47.69;;;27.55;;
56680;SDS011;42558;52.388;13.390;2022-11-15T09:54:11;53.96;;;31.16;;
56680;SDS011;42558;52.388;13.390;2022-11-15T09:57:15;45.22;;;27.36;;
56680;SDS011;42558;52.388;13.390;2022-11-15T10:00:16;47.12;;;28.12;;
56680;SDS011;42558;52.388;13.390;2022-11-15T10:03:15;45.60;;;27.17;;
56680;SDS011;42558;52.388;13.390;2022-11-15T10:05:49;42.18;;;26.60;;
56680;SDS011;42558;52.388;13.390;2022-11-15T10:08:31;41.23;;;25.08;;
56680;SDS011;42558;52.388;13.390;2022-11-15T10:11:20;40.47;;;25.27;;
56680;SDS011;42558;52.388;13.390;2022-11-15T10:14:18;35.72;;;23.94;;
56680;SDS011;42558;52.388;13.390;2022-11-15T10:17:17;37.24;;;22.99;;
56680;SDS011;42558;52.388;13.390;2022-11-15T10:22:50;32.68;;;22.61;;
56680;SDS011;42558;52.388;13.390;2022-11-15T10:25:26;37.24;;;21.66;;
56680;SDS011;42558;52.388;13.390;2022-11-15T10:28:22;30.59;;;20.52;;
56680;SDS011;42558;52.388;13.390;2022-11-15T10:30:59;30.78;;;20.14;;
56680;SDS011;42558;52.388;13.390;2022-11-15T10:33:39;28.88;;;19.95;;
56680;SDS011;42558;52.388;13.390;2022-11-15T10:38:56;29.45;;;20.52;;
56680;SDS011;42558;52.388;13.390;2022-11-15T10:44:17;30.59;;;18.81;;
56680;SDS011;42558;52.388;13.390;2022-11-15T10:47:24;28.69;;;20.14;;
56680;SDS011;42558;52.388;13.390;2022-11-15T10:50:30;23.75;;;16.72;;
56680;SDS011;42558;52.388;13.390;2022-11-15T10:53:01;27.36;;;18.43;;
56680;SDS011;42558;52.388;13.390;2022-11-15T10:55:33;28.88;;;18.24;;
56680;SDS011;42558;52.388;13.390;2022-11-15T10:58:21;28.69;;;19.38;;
56680;SDS011;42558;52.388;13.390;2022-11-15T11:01:45;30.02;;;20.90;;
56680;SDS011;42558;52.388;13.390;2022-11-15T11:04:13;29.26;;;19.76;;
56680;SDS011;42558;52.388;13.390;2022-11-15T11:09:32;33.06;;;19.38;;
56680;SDS011;42558;52.388;13.390;2022-11-15T11:12:10;28.50;;;18.62;;
56680;SDS011;42558;52.388;13.390;2022-11-15T11:14:44;27.17;;;18.24;;
56680;SDS011;42558;52.388;13.390;2022-11-15T11:17:32;29.07;;;18.24;;
56680;SDS011;42558;52.388;13.390;2022-11-15T11:20:32;29.07;;;18.62;;
56680;SDS011;42558;52.388;13.390;2022-11-15T11:33:20;27.55;;;17.86;;
56680;SDS011;42558;52.388;13.390;2022-11-15T11:39:11;27.17;;;18.62;;
56680;SDS011;42558;52.388;13.390;2022-11-15T11:41:59;26.41;;;17.29;;
56680;SDS011;42558;52.388;13.390;2022-11-15T11:47:51;26.60;;;16.91;;
56680;SDS011;42558;52.388;13.390;2022-11-15T11:50:33;29.26;;;18.62;;
56680;SDS011;42558;52.388;13.390;2022-11-15T11:56:03;26.03;;;16.72;;
56680;SDS011;42558;52.388;13.390;2022-11-15T11:58:41;26.41;;;16.91;;
56680;SDS011;42558;52.388;13.390;2022-11-15T12:01:23;28.12;;;15.96;;
56680;SDS011;42558;52.388;13.390;2022-11-15T12:06:53;25.08;;;16.91;;
56680;SDS011;42558;52.388;13.390;2022-11-15T12:09:44;25.84;;;15.77;;
56680;SDS011;42558;52.388;13.390;2022-11-15T12:12:47;24.70;;;15.77;;
56680;SDS011;42558;52.388;13.390;2022-11-15T12:15:42;26.41;;;16.34;;
56680;SDS011;42558;52.388;13.390;2022-11-15T12:18:17;27.36;;;16.15;;
56680;SDS011;42558;52.388;13.390;2022-11-15T12:20:59;25.46;;;15.96;;
56680;SDS011;42558;52.388;13.390;2022-11-15T12:23:38;26.98;;;16.53;;
56680;SDS011;42558;52.388;13.390;2022-11-15T12:26:22;26.98;;;16.34;;
56680;SDS011;42558;52.388;13.390;2022-11-15T12:29:02;22.42;;;15.20;;
56680;SDS011;42558;52.388;13.390;2022-11-15T12:31:40;25.46;;;14.25;;
56680;SDS011;42558;52.388;13.390;2022-11-15T12:34:38;23.37;;;15.39;;
56680;SDS011;42558;52.388;13.390;2022-11-15T12:37:32;23.75;;;15.20;;
56680;SDS011;42558;52.388;13.390;2022-11-15T12:43:04;25.84;;;14.82;;
56680;SDS011;42558;52.388;13.390;2022-11-15T12:45:43;21.66;;;13.87;;
56680;SDS011;42558;52.388;13.390;2022-11-15T12:53:26;22.99;;;14.82;;
56680;SDS011;42558;52.388;13.390;2022-11-15T12:59:07;23.37;;;14.25;;
56680;SDS011;42558;52.388;13.390;2022-11-15T13:01:56;20.14;;;13.68;;
56680;SDS011;42558;52.388;13.390;2022-11-15T13:04:27;23.18;;;13.87;;
56680;SDS011;42558;52.388;13.390;2022-11-15T13:07:01;22.99;;;12.92;;
56680;SDS011;42558;52.388;13.390;2022-11-15T13:14:58;22.04;;;13.68;;
56680;SDS011;42558;52.388;13.390;2022-11-15T13:17:36;23.75;;;14.63;;
56680;SDS011;42558;52.388;13.390;2022-11-15T13:20:22;27.17;;;16.72;;
56680;SDS011;42558;52.388;13.390;2022-11-15T13:25:45;22.99;;;14.82;;
56680;SDS011;42558;52.388;13.390;2022-11-15T13:36:08;29.64;;;18.05;;
56680;SDS011;42558;52.388;13.390;2022-11-15T13:38:54;33.63;;;19.76;;
56680;SDS011;42558;52.388;13.390;2022-11-15T13:41:34;30.78;;;19.19;;
56680;SDS011;42558;52.388;13.390;2022-11-15T13:44:22;33.44;;;19.57;;
56680;SDS011;42558;52.388;13.390;2022-11-15T13:47:04;34.58;;;19.95;;
56680;SDS011;42558;52.388;13.390;2022-11-15T13:49:45;40.09;;;21.09;;
56680;SDS011;42558;52.388;13.390;2022-11-15T13:52:15;31.54;;;19.76;;
56680;SDS011;42558;52.388;13.390;2022-11-15T13:55:02;34.01;;;20.90;;
56680;SDS011;42558;52.388;13.390;2022-11-15T13:57:46;37.24;;;22.04;;
56680;SDS011;42558;52.388;13.390;2022-11-15T14:00:37;33.82;;;21.09;;
56680;SDS011;42558;52.388;13.390;2022-11-15T14:03:27;30.21;;;19.38;;
56680;SDS011;42558;52.388;13.390;2022-11-15T14:06:13;33.25;;;20.33;;
56680;SDS011;42558;52.388;13.390;2022-11-15T14:11:50;32.30;;;21.85;;
56680;SDS011;42558;52.388;13.390;2022-11-15T14:14:26;31.73;;;19.57;;
56680;SDS011;42558;52.388;13.390;2022-11-15T14:16:59;33.63;;;21.47;;
56680;SDS011;42558;52.388;13.390;2022-11-15T14:22:30;34.58;;;21.47;;
56680;SDS011;42558;52.388;13.390;2022-11-15T14:25:12;32.11;;;20.33;;
56680;SDS011;42558;52.388;13.390;2022-11-15T14:30:45;42.37;;;22.99;;
56680;SDS011;42558;52.388;13.390;2022-11-15T14:33:29;32.49;;;20.33;;
56680;SDS011;42558;52.388;13.390;2022-11-15T14:36:13;38.38;;;21.28;;
56680;SDS011;42558;52.388;13.390;2022-11-15T14:38:45;37.43;;;20.90;;
56680;SDS011;42558;52.388;13.390;2022-11-15T14:41:22;37.43;;;22.04;;
56680;SDS011;42558;52.388;13.390;2022-11-15T14:43:53;33.06;;;20.71;;
56680;SDS011;42558;52.388;13.390;2022-11-15T14:46:23;33.82;;;20.33;;
56680;SDS011;42558;52.388;13.390;2022-11-15T14:48:53;35.53;;;19.76;;
56680;SDS011;42558;52.388;13.390;2022-11-15T14:51:23;28.12;;;19.00;;
56680;SDS011;42558;52.388;13.390;2022-11-15T14:53:53;35.72;;;20.33;;
56680;SDS011;42558;52.388;13.390;2022-11-15T14:56:24;35.34;;;21.47;;
56680;SDS011;42558;52.388;13.390;2022-11-15T14:58:54;35.72;;;20.52;;
56680;SDS011;42558;52.388;13.390;2022-11-15T15:01:25;30.78;;;19.95;;
56680;SDS011;42558;52.388;13.390;2022-11-15T15:03:56;32.68;;;21.66;;
56680;SDS011;42558;52.388;13.390;2022-11-15T15:06:27;32.30;;;19.95;;
56680;SDS011;42558;52.388;13.390;2022-11-15T15:08:58;35.34;;;22.23;;
56680;SDS011;42558;52.388;13.390;2022-11-15T15:11:30;35.91;;;20.71;;
56680;SDS011;42558;52.388;13.390;2022-11-15T15:14:00;31.35;;;20.14;;
56680;SDS011;42558;52.388;13.390;2022-11-15T15:16:30;35.53;;;21.09;;
56680;SDS011;42558;52.388;13.390;2022-11-15T15:19:00;34.01;;;19.38;;
56680;SDS011;42558;52.388;13.390;2022-11-15T15:21:30;33.63;;;20.71;;
56680;SDS011;42558;52.388;13.390;2022-11-15T15:24:05;31.73;;;19.76;;
56680;SDS011;42558;52.388;13.390;2022-11-15T15:26:33;30.40;;;18.81;;
56680;SDS011;42558;52.388;13.390;2022-11-15T15:29:04;30.40;;;19.38;;
56680;SDS011;42558;52.388;13.390;2022-11-15T15:31:33;32.68;;;19.38;;
56680;SDS011;42558;52.388;13.390;2022-11-15T15:34:01;29.45;;;18.62;;
56680;SDS011;42558;52.388;13.390;2022-11-15T15:36:32;27.55;;;17.67;;
56680;SDS011;42558;52.388;13.390;2022-11-15T15:39:02;33.63;;;19.76;;
56680;SDS011;42558;52.388;13.390;2022-11-15T15:41:32;29.07;;;18.24;;
56680;SDS011;42558;52.388;13.390;2022-11-15T15:44:02;30.40;;;19.19;;
56680;SDS011;42558;52.388;13.390;2022-11-15T15:46:33;32.30;;;20.33;;
56680;SDS011;42558;52.388;13.390;2022-11-15T15:49:03;32.30;;;19.00;;
56680;SDS011;42558;52.388;13.390;2022-11-15T15:51:33;31.35;;;19.38;;
56680;SDS011;42558;52.388;13.390;2022-11-15T15:54:03;34.96;;;21.28;;
56680;SDS011;42558;52.388;13.390;2022-11-15T15:56:33;33.44;;;20.90;;
56680;SDS011;42558;52.388;13.390;2022-11-15T15:59:03;32.11;;;20.33;;
56680;SDS011;42558;52.388;13.390;2022-11-15T16:01:33;33.06;;;19.95;;
56680;SDS011;42558;52.388;13.390;2022-11-15T16:04:03;36.48;;;20.71;;
56680;SDS011;42558;52.388;13.390;2022-11-15T16:06:38;35.91;;;20.90;;
56680;SDS011;42558;52.388;13.390;2022-11-15T16:09:13;34.39;;;20.71;;
56680;SDS011;42558;52.388;13.390;2022-11-15T16:11:46;29.45;;;19.76;;
56680;SDS011;42558;52.388;13.390;2022-11-15T16:14:16;30.78;;;19.38;;
56680;SDS011;42558;52.388;13.390;2022-11-15T16:16:46;29.45;;;19.57;;
56680;SDS011;42558;52.388;13.390;2022-11-15T16:19:16;28.88;;;18.43;;
56680;SDS011;42558;52.388;13.390;2022-11-15T16:21:46;32.87;;;20.52;;
56680;SDS011;42558;52.388;13.390;2022-11-15T16:24:16;34.20;;;20.33;;
56680;SDS011;42558;52.388;13.390;2022-11-15T16:26:47;35.15;;;21.28;;
56680;SDS011;42558;52.388;13.390;2022-11-15T16:29:18;38.19;;;22.42;;
56680;SDS011;42558;52.388;13.390;2022-11-15T16:31:48;37.24;;;23.18;;
56680;SDS011;42558;52.388;13.390;2022-11-15T16:34:18;40.09;;;23.56;;